Time;durP1;ratioP1;P1;durP2;ratioP2;P2;SDS_P1;SDS_P2;PMS_P1;PMS_P2;Temp;Humidity;BMP_temperature;BMP_pressure;BME280_temperature;BME280_humidity;BME280_pressure;Samples;Min_cycle;Max_cycle;Signal;HPM_P1;HPM_P2
2023/05/12 00:00:40;;;;;;;;;;;;;;;20.31;44.64;95313.44;10236900;28;1911;-65
2023/05/12 00:05:41;;;;;;;;;;;;;;;20.30;44.65;95314.50;10240639;28;1847;-65
2023/05/12 00:10:41;;;;;;;;;;;;;;;20.30;44.61;95317.16;10237174;28;1892;-65
2023/05/12 00:15:41;;;;;;;;;;;;;;;20.28;44.37;95314.78;10239136;28;1962;-65
2023/05/12 00:20:41;;;;;;;;;;;;;;;20.28;44.40;95304.25;10244697;28;1866;-65
2023/05/12 00:25:42;;;;;;;;;;;;;;;20.27;44.36;95306.13;10246820;28;1903;-65
2023/05/12 00:30:42;;;;;;;;;;;;;;;20.27;43.94;95310.59;10246951;28;1957;-65
2023/05/12 00:35:48;;;;;;;;;;;;;;;20.26;44.34;95316.91;10245419;28;1974;-65
2023/05/12 00:40:49;;;;;;;;;;;;;;;20.25;44.39;95305.63;10234773;28;2134;-67
2023/05/12 00:45:49;;;;;;;;;;;;;;;20.25;44.14;95295.09;10244968;28;2007;-65
2023/05/12 00:50:50;;;;;;;;;;;;;;;20.25;44.47;95299.56;10245306;28;1999;-65
2023/05/12 00:55:50;;;;;;;;;;;;;;;20.24;44.51;95287.44;10242538;28;1968;-66
2023/05/12 01:00:50;;;;;;;;;;;;;;;20.23;44.36;95291.16;10244252;28;1805;-65
2023/05/12 01:06:04;;;;;;;;;;;;;;;20.22;44.35;95292.22;10234615;28;2033;-66
2023/05/12 01:11:05;;;;;;;;;;;;;;;20.22;44.50;95294.84;10238837;28;1987;-65
2023/05/12 01:16:05;;;;;;;;;;;;;;;20.21;44.45;95299.34;10229732;28;2059;-65
2023/05/12 01:21:05;;;;;;;;;;;;;;;20.21;44.23;95285.41;10232576;28;2032;-66
2023/05/12 01:26:06;;;;;;;;;;;;;;;20.21;44.35;95293.28;10244405;28;1969;-65
2023/05/12 01:31:07;;;;;;;;;;;;;;;20.20;44.25;95287.25;10244159;28;1961;-65
2023/05/12 01:36:07;;;;;;;;;;;;;;;20.19;44.31;95287.50;10240833;28;1969;-65
2023/05/12 01:41:07;;;;;;;;;;;;;;;20.18;44.39;95288.56;10237167;28;1984;-66
2023/05/12 01:46:09;;;;;;;;;;;;;;;20.18;44.31;95289.34;10232070;28;1962;-66
2023/05/12 01:51:09;;;;;;;;;;;;;;;20.17;44.43;95287.75;10235563;28;1892;-65
2023/05/12 01:56:10;;;;;;;;;;;;;;;20.18;44.20;95288.56;10238035;28;4453;-66
2023/05/12 02:01:10;;;;;;;;;;;;;;;20.17;44.10;95290.38;10243951;28;1967;-66
2023/05/12 02:06:10;;;;;;;;;;;;;;;20.16;44.19;95294.09;10237338;28;1909;-66
2023/05/12 02:11:10;;;;;;;;;;;;;;;20.16;43.99;95288.84;10235482;28;1976;-65
2023/05/12 02:16:11;;;;;;;;;;;;;;;20.14;44.11;95284.91;10233278;28;1987;-65
2023/05/12 02:21:11;;;;;;;;;;;;;;;20.15;44.10;95286.50;10234121;28;3127;-66
2023/05/12 02:26:11;;;;;;;;;;;;;;;20.15;44.35;95286.50;10238589;28;1949;-66
2023/05/12 02:31:11;;;;;;;;;;;;;;;20.13;44.36;95280.72;10235533;28;2016;-66
2023/05/12 02:36:12;;;;;;;;;;;;;;;20.12;44.31;95269.41;10236291;28;1980;-66
2023/05/12 02:41:12;;;;;;;;;;;;;;;20.12;44.11;95273.88;10238849;28;1883;-66
2023/05/12 02:46:12;;;;;;;;;;;;;;;20.13;44.32;95267.56;10231450;28;2015;-66
2023/05/12 02:51:12;;;;;;;;;;;;;;;20.10;44.45;95276.81;10234458;29;1962;-66
2023/05/12 02:56:13;;;;;;;;;;;;;;;20.11;44.01;95286.25;10233942;28;1980;-66
2023/05/12 03:01:13;;;;;;;;;;;;;;;20.11;44.16;95286.25;10241556;28;2009;-66
2023/05/12 03:06:13;;;;;;;;;;;;;;;20.10;44.08;95278.66;10241816;28;1958;-65
2023/05/12 03:11:13;;;;;;;;;;;;;;;20.08;44.40;95284.19;10244061;28;2048;-66
2023/05/12 03:16:16;;;;;;;;;;;;;;;20.09;44.21;95290.25;10245520;28;1973;-66
2023/05/12 03:21:16;;;;;;;;;;;;;;;20.09;44.19;95287.63;10242307;28;1930;-66
2023/05/12 03:26:17;;;;;;;;;;;;;;;20.08;43.90;95292.09;10245388;28;1972;-66
2023/05/12 03:31:17;;;;;;;;;;;;;;;20.09;44.26;95290.25;10248353;28;1981;-66
2023/05/12 03:36:17;;;;;;;;;;;;;;;20.08;44.00;95293.94;10239668;28;1917;-66
2023/05/12 03:41:18;;;;;;;;;;;;;;;20.07;44.31;95300.28;10238157;28;1928;-66
2023/05/12 03:46:18;;;;;;;;;;;;;;;20.05;44.08;95295.28;10240935;28;2055;-67
2023/05/12 03:51:18;;;;;;;;;;;;;;;20.05;44.43;95287.38;10242453;28;2035;-66
2023/05/12 03:56:18;;;;;;;;;;;;;;;20.07;44.07;95292.38;10245678;28;4501;-65
2023/05/12 04:01:19;;;;;;;;;;;;;;;20.05;44.09;95294.50;10249111;28;1929;-65
2023/05/12 04:06:19;;;;;;;;;;;;;;;20.04;44.09;95288.47;10232654;28;1964;-65
2023/05/12 04:11:19;;;;;;;;;;;;;;;20.08;44.24;95291.31;10243407;28;2002;-65
2023/05/12 04:16:20;;;;;;;;;;;;;;;20.09;44.45;95290.25;10234503;28;2095;-66
2023/05/12 04:21:20;;;;;;;;;;;;;;;20.12;44.61;95297.56;10242978;29;2117;-66
2023/05/12 04:26:20;;;;;;;;;;;;;;;20.16;44.60;95293.31;10238857;29;1897;-65
2023/05/12 04:31:21;;;;;;;;;;;;;;;20.20;44.72;95297.78;10241957;28;1929;-65
2023/05/12 04:36:21;;;;;;;;;;;;;;;20.25;44.44;95305.63;10239393;28;2075;-65
2023/05/12 04:41:21;;;;;;;;;;;;;;;20.30;44.48;95307.38;10239362;28;1893;-66
2023/05/12 04:46:22;;;;;;;;;;;;;;;20.34;44.38;95308.38;10238364;28;1905;-66
2023/05/12 04:51:22;;;;;;;;;;;;;;;20.38;44.23;95314.66;10242166;28;1989;-65
2023/05/12 04:56:22;;;;;;;;;;;;;;;20.44;44.23;95313.53;10236676;28;4433;-65
2023/05/12 05:01:22;;;;;;;;;;;;;;;20.48;44.25;95317.19;10239848;28;1889;-66
2023/05/12 05:06:23;;;;;;;;;;;;;;;20.53;43.97;95322.38;10240964;28;2092;-65
2023/05/12 05:11:23;;;;;;;;;;;;;;;20.57;43.75;95325.22;10242381;28;1896;-65
2023/05/12 05:16:24;;;;;;;;;;;;;;;20.61;43.84;95326.22;10238458;28;1982;-65
2023/05/12 05:21:24;;;;;;;;;;;;;;;20.65;43.74;95321.97;10244805;28;1933;-67
2023/05/12 05:26:24;;;;;;;;;;;;;;;20.68;43.98;95326.66;10230159;28;1965;-67
2023/05/12 05:31:27;;;;;;;;;;;;;;;20.71;43.74;95328.72;10239013;28;1963;-67
2023/05/12 05:36:27;;;;;;;;;;;;;;;20.74;43.43;95334.19;10233019;28;1985;-67
2023/05/12 05:41:28;;;;;;;;;;;;;;;20.74;43.72;95328.16;10234659;28;1959;-67
2023/05/12 05:46:28;;;;;;;;;;;;;;;20.77;43.56;95327.59;10235585;28;1949;-66
2023/05/12 05:51:28;;;;;;;;;;;;;;;20.79;43.66;95336.75;10244500;28;1905;-67
2023/05/12 05:56:29;;;;;;;;;;;;;;;20.78;43.45;95335.19;10237386;28;4345;-67
2023/05/12 06:01:32;;;;;;;;;;;;;;;20.81;43.43;95333.84;10236773;28;2000;-67
2023/05/12 06:06:32;;;;;;;;;;;;;;;20.80;43.66;95334.91;10240438;28;1980;-67
2023/05/12 06:11:32;;;;;;;;;;;;;;;20.80;43.58;95335.69;10234051;28;2045;-65
2023/05/12 06:16:33;;;;;;;;;;;;;;;20.79;43.79;95336.75;10239041;28;2189;-65
2023/05/12 06:21:33;;;;;;;;;;;;;;;20.78;43.80;95335.19;10231679;28;1956;-67
2023/05/12 06:26:33;;;;;;;;;;;;;;;20.73;43.77;95339.75;10232985;28;1941;-63
2023/05/12 06:31:33;;;;;;;;;;;;;;;20.70;43.65;95351.66;10237758;28;1931;-68
2023/05/12 06:36:34;;;;;;;;;;;;;;;20.71;43.88;95347.16;10226719;28;2017;-64
2023/05/12 06:41:34;;;;;;;;;;;;;;;20.74;44.17;95351.84;10243482;28;1925;-62
2023/05/12 06:46:34;;;;;;;;;;;;;;;20.76;43.91;95358.41;10236936;28;1939;-63
2023/05/12 06:51:35;;;;;;;;;;;;;;;20.76;44.46;95363.69;10234949;28;2302;-64
2023/05/12 06:56:35;;;;;;;;;;;;;;;20.75;44.23;95362.09;10239210;28;2152;-64
2023/05/12 07:01:36;;;;;;;;;;;;;;;20.74;44.48;95355.28;10233966;28;1932;-64
2023/05/12 07:06:36;;;;;;;;;;;;;;;20.75;44.61;95359.47;10238407;28;1925;-64
2023/05/12 07:11:36;;;;;;;;;;;;;;;20.72;44.68;95357.41;10238981;28;1823;-64
2023/05/12 07:16:36;;;;;;;;;;;;;;;20.73;44.52;95358.19;10239694;28;1982;-64
2023/05/12 07:21:37;;;;;;;;;;;;;;;20.73;44.44;95360.84;10232531;28;2016;-65
2023/05/12 07:26:37;;;;;;;;;;;;;;;20.69;44.78;95357.97;10236476;28;1914;-65
2023/05/12 07:31:38;;;;;;;;;;;;;;;20.70;44.82;95356.91;10238037;28;1854;-65
2023/05/12 07:36:38;;;;;;;;;;;;;;;20.68;44.76;95355.63;10235637;28;1978;-64
2023/05/12 07:41:38;;;;;;;;;;;;;;;20.66;44.77;95358.53;10239060;28;1925;-65
2023/05/12 07:46:39;;;;;;;;;;;;;;;20.65;44.99;95356.97;10235829;28;1895;-65
2023/05/12 07:51:39;;;;;;;;;;;;;;;20.64;44.86;95352.78;10231996;28;1919;-65
2023/05/12 07:56:39;;;;;;;;;;;;;;;20.62;44.89;95354.13;10233649;28;2027;-66
2023/05/12 08:01:40;;;;;;;;;;;;;;;20.60;45.05;95353.63;10234650;28;2272;-67
2023/05/12 08:06:40;;;;;;;;;;;;;;;20.60;44.87;95359.69;10216564;28;1821;-65
2023/05/12 08:11:41;;;;;;;;;;;;;;;20.58;44.77;95359.19;10237168;28;1874;-65
2023/05/12 08:16:44;;;;;;;;;;;;;;;20.57;45.09;95354.97;10233998;28;1974;-64
2023/05/12 08:21:44;;;;;;;;;;;;;;;20.58;45.05;95361.03;10232816;28;1903;-65
2023/05/12 08:26:44;;;;;;;;;;;;;;;20.56;45.14;95360.53;10233403;28;1827;-66
2023/05/12 08:31:45;;;;;;;;;;;;;;;20.56;45.11;95361.31;10234311;28;1872;-64
2023/05/12 08:36:45;;;;;;;;;;;;;;;20.55;45.04;95365.00;10234547;28;1906;-65
2023/05/12 08:42:05;;;;;;;;;;;;;;;20.55;45.21;95367.63;10231553;28;1846;-65
2023/05/12 08:47:06;;;;;;;;;;;;;;;20.54;45.20;95360.00;10229692;28;1991;-65
2023/05/12 08:52:06;;;;;;;;;;;;;;;20.52;45.31;95362.94;10231973;28;2102;-66
2023/05/12 08:57:06;;;;;;;;;;;;;;;20.51;45.44;95364.00;10231338;28;4390;-66
2023/05/12 09:02:07;;;;;;;;;;;;;;;20.50;45.30;95364.28;10229896;28;1844;-66
2023/05/12 09:07:07;;;;;;;;;;;;;;;20.49;45.23;95363.50;10233931;28;1868;-66
2023/05/12 09:12:08;;;;;;;;;;;;;;;20.52;45.39;95362.16;10208326;28;1832;-63
2023/05/12 09:17:11;;;;;;;;;;;;;;;20.50;45.52;95372.97;10231038;28;1923;-64
2023/05/12 09:22:13;;;;;;;;;;;;;;;20.50;45.61;95370.34;10225909;28;1827;-64
2023/05/12 09:27:13;;;;;;;;;;;;;;;20.51;45.89;95368.47;10222460;28;1986;-63
2023/05/12 09:32:14;;;;;;;;;;;;;;;20.51;45.84;95369.25;10222393;28;1883;-64
2023/05/12 09:37:14;;;;;;;;;;;;;;;20.50;45.85;95365.06;10227127;28;1989;-66
2023/05/12 09:42:14;;;;;;;;;;;;;;;20.50;45.76;95369.53;10228752;28;1956;-67
2023/05/12 09:47:15;;;;;;;;;;;;;;;20.49;45.88;95368.75;10228576;28;2164;-65
2023/05/12 09:52:15;;;;;;;;;;;;;;;20.48;45.84;95367.19;10227620;28;1852;-64
2023/05/12 09:57:15;;;;;;;;;;;;;;;20.49;45.81;95366.13;10228831;28;4350;-65
2023/05/12 10:02:16;;;;;;;;;;;;;;;20.47;45.93;95364.81;10234966;28;1552;-64
2023/05/12 10:07:17;;;;;;;;;;;;;;;20.46;45.89;95369.34;10231754;28;1508;-64
2023/05/12 10:12:17;;;;;;;;;;;;;;;20.46;45.97;95371.19;10227497;28;2219;-65
2023/05/12 10:17:20;;;;;;;;;;;;;;;20.45;45.95;95362.50;10232189;28;1938;-67
2023/05/12 10:22:21;;;;;;;;;;;;;;;20.45;45.84;95367.75;10231905;28;1898;-65
2023/05/12 10:27:21;;;;;;;;;;;;;;;20.45;45.94;95378.28;10232480;28;1808;-66
2023/05/12 10:32:21;;;;;;;;;;;;;;;20.44;45.92;95375.94;10233005;28;2008;-64
2023/05/12 10:37:22;;;;;;;;;;;;;;;20.43;46.10;95375.16;10229700;28;2018;-65
2023/05/12 10:42:24;;;;;;;;;;;;;;;20.42;45.82;95372.81;10230016;28;2255;-65
2023/05/12 10:47:28;;;;;;;;;;;;;;;20.43;45.71;95375.16;10225297;28;1863;-65
2023/05/12 10:52:28;;;;;;;;;;;;;;;20.42;46.18;95373.59;10231987;28;1973;-66
2023/05/12 10:57:29;;;;;;;;;;;;;;;20.41;45.93;95377.28;10226711;28;4195;-65
2023/05/12 11:02:31;;;;;;;;;;;;;;;20.40;46.30;95383.63;10232815;28;1884;-65
2023/05/12 11:07:31;;;;;;;;;;;;;;;20.40;46.19;95381.00;10235212;28;1926;-65
2023/05/12 11:12:34;;;;;;;;;;;;;;;20.39;45.99;95389.94;10220196;28;1883;-66
2023/05/12 11:17:38;;;;;;;;;;;;;;;20.38;46.05;95391.00;10211428;28;1903;-66
2023/05/12 11:22:39;;;;;;;;;;;;;;;20.38;46.21;95387.59;10227589;28;1841;-65
2023/05/12 11:27:44;;;;;;;;;;;;;;;20.37;46.06;95389.44;10240546;28;2145;-65
2023/05/12 11:32:44;;;;;;;;;;;;;;;20.36;46.07;95390.47;10241859;28;1880;-66
2023/05/12 11:37:45;;;;;;;;;;;;;;;20.36;46.11;95395.75;10238767;28;1970;-65
2023/05/12 11:42:47;;;;;;;;;;;;;;;20.36;46.07;95400.25;10244940;28;1917;-66
2023/05/12 11:47:47;;;;;;;;;;;;;;;20.34;45.90;95399.75;10246254;28;1872;-66
2023/05/12 11:52:48;;;;;;;;;;;;;;;20.34;45.94;95402.38;10240229;28;2086;-66
2023/05/12 11:57:55;;;;;;;;;;;;;;;20.34;46.15;95400.50;10221161;28;4534;-64
2023/05/12 12:03:09;;;;;;;;;;;;;;;20.34;46.31;95403.16;10242362;28;1971;-65
2023/05/12 12:08:12;;;;;;;;;;;;;;;20.34;46.41;95412.91;10239792;28;1893;-65
2023/05/12 12:13:12;;;;;;;;;;;;;;;20.34;46.65;95412.91;10242443;28;1894;-63
2023/05/12 12:18:13;;;;;;;;;;;;;;;20.33;46.63;95412.13;10237739;28;1926;-60
2023/05/12 12:23:14;;;;;;;;;;;;;;;20.36;46.92;95408.16;10238806;29;1970;-65
2023/05/12 12:28:14;;;;;;;;;;;;;;;20.33;46.79;95412.13;10239473;28;2027;-65
2023/05/12 12:33:14;;;;;;;;;;;;;;;20.33;46.59;95406.84;10236935;28;2258;-64
2023/05/12 12:38:15;;;;;;;;;;;;;;;20.34;46.76;95410.28;10234111;28;1975;-64
2023/05/12 12:43:16;;;;;;;;;;;;;;;20.32;46.69;95409.78;10221817;28;1888;-65
2023/05/12 12:48:17;;;;;;;;;;;;;;;20.32;46.98;95409.78;10240755;28;1828;-65
2023/05/12 12:53:17;;;;;;;;;;;;;;;20.31;46.99;95411.63;10236989;28;2235;-65
2023/05/12 12:58:18;;;;;;;;;;;;;;;20.33;47.16;95411.31;10235744;28;4480;-65
2023/05/12 13:03:18;;;;;;;;;;;;;;;20.33;47.09;95419.22;10235348;29;2067;-65
2023/05/12 13:08:18;;;;;;;;;;;;;;;20.33;47.38;95413.97;10231666;28;1879;-64
2023/05/12 13:13:18;;;;;;;;;;;;;;;20.32;47.45;95409.78;10237130;29;1903;-65
2023/05/12 13:18:19;;;;;;;;;;;;;;;20.32;47.30;95412.41;10237903;28;2027;-64
2023/05/12 13:23:20;;;;;;;;;;;;;;;20.32;47.54;95413.16;10241110;28;1848;-64
2023/05/12 13:28:20;;;;;;;;;;;;;;;20.33;47.50;95412.13;10236531;28;1876;-65
2023/05/12 13:33:20;;;;;;;;;;;;;;;20.32;47.34;95407.13;10238399;28;2116;-64
2023/05/12 13:38:21;;;;;;;;;;;;;;;20.33;47.56;95411.31;10234832;28;1975;-65
2023/05/12 13:43:21;;;;;;;;;;;;;;;20.33;47.48;95406.84;10235520;29;1844;-64
2023/05/12 13:48:21;;;;;;;;;;;;;;;20.35;47.59;95403.94;10236522;28;1950;-68
2023/05/12 13:53:22;;;;;;;;;;;;;;;20.36;47.38;95405.53;10236965;28;1892;-68
2023/05/12 13:58:22;;;;;;;;;;;;;;;20.37;47.47;95407.06;10235327;28;4397;-67
2023/05/12 14:03:22;;;;;;;;;;;;;;;20.39;47.16;95411.00;10239306;28;1817;-68
2023/05/12 14:08:23;;;;;;;;;;;;;;;20.41;47.18;95400.97;10229927;28;1899;-67
2023/05/12 14:13:24;;;;;;;;;;;;;;;20.42;47.20;95414.94;10236086;29;1840;-68
2023/05/12 14:18:24;;;;;;;;;;;;;;;20.44;47.21;95407.53;10235408;28;2063;-70
2023/05/12 14:23:25;;;;;;;;;;;;;;;20.46;46.93;95411.47;10236095;28;1879;-68
2023/05/12 14:28:25;;;;;;;;;;;;;;;20.48;47.17;95409.34;10237752;28;2068;-67
2023/05/12 14:33:26;;;;;;;;;;;;;;;20.50;47.21;95416.94;10234667;28;1851;-66
2023/05/12 14:38:26;;;;;;;;;;;;;;;20.54;47.05;95410.03;10229281;28;2059;-68
2023/05/12 14:43:26;;;;;;;;;;;;;;;20.53;47.09;95413.72;10235271;28;1863;-67
2023/05/12 14:48:26;;;;;;;;;;;;;;;20.55;47.07;95415.03;10233470;28;1931;-66
2023/05/12 14:53:27;;;;;;;;;;;;;;;20.58;46.99;95414.47;10228479;28;1990;-66
2023/05/12 14:58:27;;;;;;;;;;;;;;;20.58;46.93;95419.75;10241224;28;4500;-67
2023/05/12 15:03:27;;;;;;;;;;;;;;;20.60;47.71;95419.47;10241694;28;1903;-68
2023/05/12 15:08:27;;;;;;;;;;;;;;;20.64;48.12;95425.72;10243798;28;1963;-68
2023/05/12 15:13:28;;;;;;;;;;;;;;;20.67;48.02;95422.53;10238278;29;1859;-72
2023/05/12 15:18:28;;;;;;;;;;;;;;;20.68;48.68;95426.72;10244044;28;1923;-72
2023/05/12 15:23:28;;;;;;;;;;;;;;;20.69;48.69;95426.44;10238647;28;2034;-72
2023/05/12 15:28:29;;;;;;;;;;;;;;;20.70;48.76;95422.75;10245372;28;1875;-71
2023/05/12 15:33:29;;;;;;;;;;;;;;;20.71;48.90;95431.44;10242035;28;1891;-71
2023/05/12 15:38:30;;;;;;;;;;;;;;;20.68;48.76;95435.44;10236835;28;1984;-67
2023/05/12 15:43:30;;;;;;;;;;;;;;;20.69;48.88;95431.72;10239939;29;1880;-66
2023/05/12 15:48:31;;;;;;;;;;;;;;;20.67;48.77;95436.47;10242434;28;1840;-68
2023/05/12 15:53:31;;;;;;;;;;;;;;;20.67;49.06;95433.06;10231950;28;2035;-67
2023/05/12 15:58:31;;;;;;;;;;;;;;;20.67;49.19;95433.06;10232536;28;4433;-67
2023/05/12 16:03:32;;;;;;;;;;;;;;;20.67;49.31;95425.19;10228918;28;1980;-64
2023/05/12 16:08:32;;;;;;;;;;;;;;;20.65;49.07;95441.25;10230438;28;2098;-66
2023/05/12 16:13:33;;;;;;;;;;;;;;;20.63;48.93;95440.72;10231248;28;1939;-64
2023/05/12 16:18:33;;;;;;;;;;;;;;;20.66;49.14;95434.91;10233785;28;2187;-64
2023/05/12 16:23:34;;;;;;;;;;;;;;;20.66;49.44;95437.56;10235012;28;1967;-65
2023/05/12 16:28:34;;;;;;;;;;;;;;;20.67;49.66;95433.06;10237614;28;1965;-64
2023/05/12 16:33:34;;;;;;;;;;;;;;;20.67;49.81;95425.19;10235373;28;2035;-63
2023/05/12 16:38:34;;;;;;;;;;;;;;;20.65;50.02;95433.34;10231351;28;1958;-63
2023/05/12 16:43:36;;;;;;;;;;;;;;;20.65;49.88;95430.69;10239540;28;1895;-63
2023/05/12 16:48:36;;;;;;;;;;;;;;;20.66;50.13;95432.28;10239130;28;1972;-62
2023/05/12 16:53:36;;;;;;;;;;;;;;;20.64;50.12;95439.69;10237789;28;1874;-63
2023/05/12 16:58:37;;;;;;;;;;;;;;;20.64;50.33;95447.59;10237124;28;4409;-65
2023/05/12 17:03:37;;;;;;;;;;;;;;;20.63;50.29;95443.38;10232708;28;1887;-64
2023/05/12 17:08:38;;;;;;;;;;;;;;;20.63;49.99;95455.78;10233439;28;1836;-64
2023/05/12 17:13:38;;;;;;;;;;;;;;;20.61;49.77;95457.91;10236788;28;1944;-64
2023/05/12 17:18:38;;;;;;;;;;;;;;;20.58;49.73;95456.63;10236418;28;1994;-64
2023/05/12 17:23:39;;;;;;;;;;;;;;;20.56;49.45;95458.75;10230893;28;1859;-64
2023/05/12 17:28:40;;;;;;;;;;;;;;;20.53;49.27;95461.91;10234255;29;1907;-64
2023/05/12 17:33:40;;;;;;;;;;;;;;;20.49;48.96;95468.00;10233218;28;1910;-64
2023/05/12 17:38:40;;;;;;;;;;;;;;;20.51;49.26;95464.03;10238566;28;2041;-64
2023/05/12 17:43:41;;;;;;;;;;;;;;;20.49;49.03;95474.06;10236566;29;1947;-64
2023/05/12 17:48:41;;;;;;;;;;;;;;;20.46;48.87;95468.59;10235432;28;1842;-65
2023/05/12 17:53:41;;;;;;;;;;;;;;;20.45;48.84;95478.34;10236480;28;1925;-64
2023/05/12 17:58:41;;;;;;;;;;;;;;;20.45;48.70;95482.81;10233524;28;4485;-64
2023/05/12 18:03:42;;;;;;;;;;;;;;;20.42;48.75;95478.09;10231029;28;2051;-64
2023/05/12 18:08:42;;;;;;;;;;;;;;;20.42;48.64;95486.00;10236220;28;1955;-64
2023/05/12 18:13:43;;;;;;;;;;;;;;;20.40;48.87;95488.94;10234058;29;2057;-64
2023/05/12 18:18:44;;;;;;;;;;;;;;;20.41;48.90;95479.16;10233078;28;2087;-64
2023/05/12 18:23:44;;;;;;;;;;;;;;;20.42;48.76;95486.00;10235074;29;1895;-64
2023/05/12 18:28:45;;;;;;;;;;;;;;;20.41;48.54;95482.59;10225363;28;2046;-66
2023/05/12 18:33:46;;;;;;;;;;;;;;;20.42;48.50;95489.44;10229725;28;1946;-65
2023/05/12 18:38:46;;;;;;;;;;;;;;;20.42;48.70;95494.69;10239402;28;2079;-63
2023/05/12 18:43:48;;;;;;;;;;;;;;;20.43;48.50;95496.25;10247726;28;1892;-64
2023/05/12 18:48:48;;;;;;;;;;;;;;;20.43;48.52;95495.47;10244811;28;1815;-64
2023/05/12 18:54:09;;;;;;;;;;;;;;;20.43;48.49;95500.72;10241557;28;1980;-64
2023/05/12 18:59:30;;;;;;;;;;;;;;;20.43;48.15;95506.00;10242406;28;4441;-65
2023/05/12 19:04:51;;;;;;;;;;;;;;;20.42;48.10;95510.50;10241907;28;1884;-66
2023/05/12 19:10:11;;;;;;;;;;;;;;;20.42;48.27;95504.44;10242701;28;2108;-66
2023/05/12 19:15:32;;;;;;;;;;;;;;;20.41;47.89;95516.00;10239135;28;2015;-67
2023/05/12 19:20:53;;;;;;;;;;;;;;;20.40;48.02;95507.34;10239328;28;1910;-67
2023/05/12 19:26:13;;;;;;;;;;;;;;;20.42;48.04;95513.13;10235506;28;1934;-62
2023/05/12 19:31:34;;;;;;;;;;;;;;;20.42;48.31;95526.28;10215449;28;1968;-61
2023/05/12 19:36:57;;;;;;;;;;;;;;;20.44;48.05;95518.91;10230108;28;1941;-65
2023/05/12 19:42:17;;;;;;;;;;;;;;;20.45;47.88;95524.94;10228061;28;1863;-67
2023/05/12 19:47:38;;;;;;;;;;;;;;;20.44;47.93;95524.16;10230461;28;1908;-66
2023/05/12 19:52:58;;;;;;;;;;;;;;;20.47;47.97;95533.34;10236088;28;1827;-65
2023/05/12 19:58:19;;;;;;;;;;;;;;;20.47;47.93;95526.22;10233792;28;4493;-65
2023/05/12 20:03:39;;;;;;;;;;;;;;;20.46;47.75;95529.94;10228746;28;2036;-63
2023/05/12 20:08:40;;;;;;;;;;;;;;;20.46;47.74;95523.88;10218819;28;1879;-63
2023/05/12 20:13:40;;;;;;;;;;;;;;;20.46;47.57;95522.03;10224128;28;1956;-65
2023/05/12 20:18:40;;;;;;;;;;;;;;;20.45;47.49;95525.72;10232349;28;1958;-66
2023/05/12 20:23:41;;;;;;;;;;;;;;;20.43;47.50;95522.59;10232991;28;1868;-66
2023/05/12 20:28:41;;;;;;;;;;;;;;;20.45;47.33;95519.66;10229474;28;8118;-65
2023/05/12 20:33:41;;;;;;;;;;;;;;;20.44;47.53;95523.38;10228989;28;5128;-66
2023/05/12 20:38:41;;;;;;;;;;;;;;;20.43;47.26;95516.53;10233393;28;5229;-64
2023/05/12 20:43:44;;;;;;;;;;;;;;;20.42;47.20;95526.28;10231787;28;5239;-66
2023/05/12 20:48:44;;;;;;;;;;;;;;;20.42;47.41;95528.13;10231662;28;2024;-63
2023/05/12 20:53:44;;;;;;;;;;;;;;;20.42;47.07;95528.94;10231036;28;1910;-64
2023/05/12 20:58:44;;;;;;;;;;;;;;;20.41;47.36;95529.97;10231356;28;1910;-65
2023/05/12 21:03:45;;;;;;;;;;;;;;;20.40;47.17;95528.41;10231472;28;8353;-64
2023/05/12 21:08:45;;;;;;;;;;;;;;;20.42;46.89;95523.66;10228957;28;1903;-65
2023/05/12 21:13:46;;;;;;;;;;;;;;;20.39;46.97;95528.66;10229156;28;1883;-63
2023/05/12 21:18:47;;;;;;;;;;;;;;;20.40;47.06;95530.25;10231380;28;1914;-64
2023/05/12 21:23:47;;;;;;;;;;;;;;;20.39;46.79;95531.31;10231231;28;1918;-64
2023/05/12 21:28:47;;;;;;;;;;;;;;;20.37;46.98;95523.69;10235480;28;1852;-62
2023/05/12 21:33:48;;;;;;;;;;;;;;;20.35;47.01;95522.41;10239451;28;8387;-63
2023/05/12 21:38:48;;;;;;;;;;;;;;;20.34;46.88;95529.50;10239833;28;2036;-65
2023/05/12 21:43:48;;;;;;;;;;;;;;;20.32;46.81;95530.84;10247541;28;1464;-66
2023/05/12 21:48:49;;;;;;;;;;;;;;;20.30;46.68;95535.63;10247676;28;1783;-66
2023/05/12 21:53:49;;;;;;;;;;;;;;;20.29;46.93;95537.44;10239701;28;1829;-66
2023/05/12 21:58:50;;;;;;;;;;;;;;;20.25;46.96;95524.06;10240749;28;1915;-67
2023/05/12 22:03:50;;;;;;;;;;;;;;;20.25;46.95;95545.13;10237377;28;1875;-68
2023/05/12 22:08:50;;;;;;;;;;;;;;;20.24;46.77;95542.75;10239276;28;1906;-68
2023/05/12 22:13:50;;;;;;;;;;;;;;;20.22;46.69;95544.88;10237955;28;1895;-67
2023/05/12 22:18:51;;;;;;;;;;;;;;;20.22;46.77;95536.97;10232795;28;1922;-67
2023/05/12 22:23:51;;;;;;;;;;;;;;;20.18;46.92;95541.97;10235465;28;2132;-68
2023/05/12 22:28:51;;;;;;;;;;;;;;;20.18;46.74;95541.19;10238229;28;1860;-67
2023/05/12 22:33:52;;;;;;;;;;;;;;;20.18;46.93;95538.56;10234740;28;5105;-68
2023/05/12 22:38:52;;;;;;;;;;;;;;;20.15;46.76;95537.25;10233486;28;1966;-67
2023/05/12 22:43:52;;;;;;;;;;;;;;;20.15;46.78;95531.22;10236750;28;1855;-66
2023/05/12 22:48:53;;;;;;;;;;;;;;;20.13;46.79;95531.47;10234340;28;1896;-68
2023/05/12 22:53:53;;;;;;;;;;;;;;;20.12;46.78;95532.56;10234940;29;1939;-69
2023/05/12 22:58:53;;;;;;;;;;;;;;;20.12;46.75;95524.66;10235875;28;1906;-67
2023/05/12 23:03:53;;;;;;;;;;;;;;;20.11;46.57;95525.72;10234740;28;1828;-67
2023/05/12 23:08:54;;;;;;;;;;;;;;;20.09;46.60;95525.19;10237358;28;1973;-67
2023/05/12 23:13:54;;;;;;;;;;;;;;;20.09;46.66;95519.19;10237954;28;1999;-67
2023/05/12 23:18:54;;;;;;;;;;;;;;;20.08;46.54;95520.22;10234067;28;2085;-67
2023/05/12 23:23:55;;;;;;;;;;;;;;;20.09;46.47;95516.53;10242462;28;2013;-68
2023/05/12 23:28:55;;;;;;;;;;;;;;;20.07;46.69;95508.91;10246138;28;2285;-68
2023/05/12 23:33:55;;;;;;;;;;;;;;;20.05;46.42;95511.03;10238578;28;5134;-68
2023/05/12 23:38:55;;;;;;;;;;;;;;;20.05;46.58;95512.91;10241012;28;2068;-68
2023/05/12 23:43:56;;;;;;;;;;;;;;;20.06;46.27;95511.81;10242547;28;1911;-68
2023/05/12 23:48:56;;;;;;;;;;;;;;;20.04;46.58;95506.84;10241158;28;1913;-68
2023/05/12 23:53:57;;;;;;;;;;;;;;;20.03;46.35;95507.88;10238228;28;1855;-68
2023/05/12 23:58:58;;;;;;;;;;;;;;;20.03;46.34;95507.13;10236063;28;1934;-68
